Crawford, Oklahoma
Current Conditions -  °F | °C
As of 9:53 PM on Saturday 24 Jan 2015 (Local Time) from KGAG Reporting Station
Broken Clouds Broken Clouds  
Wind Chill:   Ceiling: 12000
Heat Index:   Visibility: 10mi
Dew Point: -1°   Wind: 9mph
Humidity: 62%   Direction: 270°W
Pressure: 29.95"   Gusts: NA
Location:  35.83°N, 99.8°W
Report Text: KGAG 250353Z AUTO 27008KT 10SM SCT100 BKN120 06/M01 A2995 RMK AO2 SLP146 T00561011
Loading
Personal Weather Stations






























Interactive Weather Map New forecast layout! Learn more

10-Day Weather Forecast

Advertisements
Track Severe Weather on mobile